sensor_id;sensor_type;location;lat;lon;timestamp;temperature;humidity
46932;DHT22;32670;51.464;11.964;2022-08-19T00:00:25;26.20;67.20
46932;DHT22;32670;51.464;11.964;2022-08-19T00:02:51;26.20;67.10
46932;DHT22;32670;51.464;11.964;2022-08-19T00:05:18;26.20;67.20
46932;DHT22;32670;51.464;11.964;2022-08-19T00:07:44;26.10;67.40
46932;DHT22;32670;51.464;11.964;2022-08-19T00:10:12;26.10;67.50
46932;DHT22;32670;51.464;11.964;2022-08-19T00:12:38;26.20;67.50
46932;DHT22;32670;51.464;11.964;2022-08-19T00:15:09;26.10;67.70
46932;DHT22;32670;51.464;11.964;2022-08-19T00:17:42;26.10;67.60
46932;DHT22;32670;51.464;11.964;2022-08-19T00:20:11;26.10;67.70
46932;DHT22;32670;51.464;11.964;2022-08-19T00:22:38;26.10;67.60
46932;DHT22;32670;51.464;11.964;2022-08-19T00:25:07;26.10;68.00
46932;DHT22;32670;51.464;11.964;2022-08-19T00:27:33;26.10;68.00
46932;DHT22;32670;51.464;11.964;2022-08-19T00:29:59;26.10;68.10
46932;DHT22;32670;51.464;11.964;2022-08-19T00:32:25;26.10;68.20
46932;DHT22;32670;51.464;11.964;2022-08-19T00:34:51;26.10;68.70
46932;DHT22;32670;51.464;11.964;2022-08-19T00:37:23;26.10;68.20
46932;DHT22;32670;51.464;11.964;2022-08-19T00:39:51;26.10;68.30
46932;DHT22;32670;51.464;11.964;2022-08-19T00:42:18;26.10;68.30
46932;DHT22;32670;51.464;11.964;2022-08-19T00:44:44;26.10;68.20
46932;DHT22;32670;51.464;11.964;2022-08-19T00:47:10;26.10;68.20
46932;DHT22;32670;51.464;11.964;2022-08-19T00:49:57;26.10;68.20
46932;DHT22;32670;51.464;11.964;2022-08-19T00:52:29;26.10;68.40
46932;DHT22;32670;51.464;11.964;2022-08-19T00:54:57;26.10;68.10
46932;DHT22;32670;51.464;11.964;2022-08-19T00:57:36;26.10;68.20
46932;DHT22;32670;51.464;11.964;2022-08-19T01:00:07;26.10;68.40
46932;DHT22;32670;51.464;11.964;2022-08-19T01:02:34;26.10;68.30
46932;DHT22;32670;51.464;11.964;2022-08-19T01:05:03;26.10;68.40
46932;DHT22;32670;51.464;11.964;2022-08-19T01:07:29;26.10;68.40
46932;DHT22;32670;51.464;11.964;2022-08-19T01:09:55;26.10;68.50
46932;DHT22;32670;51.464;11.964;2022-08-19T01:12:21;26.10;68.80
46932;DHT22;32670;51.464;11.964;2022-08-19T01:14:46;26.10;68.70
46932;DHT22;32670;51.464;11.964;2022-08-19T01:17:13;26.00;68.80
46932;DHT22;32670;51.464;11.964;2022-08-19T01:19:41;26.10;68.80
46932;DHT22;32670;51.464;11.964;2022-08-19T01:22:26;26.10;68.60
46932;DHT22;32670;51.464;11.964;2022-08-19T01:24:53;26.00;68.80
46932;DHT22;32670;51.464;11.964;2022-08-19T01:27:18;25.90;68.60
46932;DHT22;32670;51.464;11.964;2022-08-19T01:29:44;25.90;68.90
46932;DHT22;32670;51.464;11.964;2022-08-19T01:32:15;25.90;68.90
46932;DHT22;32670;51.464;11.964;2022-08-19T01:34:41;25.90;69.00
46932;DHT22;32670;51.464;11.964;2022-08-19T01:37:10;25.80;69.00
46932;DHT22;32670;51.464;11.964;2022-08-19T01:39:37;25.80;69.00
46932;DHT22;32670;51.464;11.964;2022-08-19T01:42:03;25.80;69.00
46932;DHT22;32670;51.464;11.964;2022-08-19T01:44:30;25.80;69.00
46932;DHT22;32670;51.464;11.964;2022-08-19T01:46:56;25.80;69.00
46932;DHT22;32670;51.464;11.964;2022-08-19T01:49:24;25.80;68.90
46932;DHT22;32670;51.464;11.964;2022-08-19T01:51:50;25.80;69.00
46932;DHT22;32670;51.464;11.964;2022-08-19T01:54:18;25.80;69.00
46932;DHT22;32670;51.464;11.964;2022-08-19T01:56:44;25.70;68.90
46932;DHT22;32670;51.464;11.964;2022-08-19T01:59:15;25.70;69.20
46932;DHT22;32670;51.464;11.964;2022-08-19T02:01:41;25.70;69.30
46932;DHT22;32670;51.464;11.964;2022-08-19T02:04:07;25.70;69.40
46932;DHT22;32670;51.464;11.964;2022-08-19T02:06:33;25.70;69.50
46932;DHT22;32670;51.464;11.964;2022-08-19T02:08:58;25.70;69.30
46932;DHT22;32670;51.464;11.964;2022-08-19T02:11:28;25.70;69.40
46932;DHT22;32670;51.464;11.964;2022-08-19T02:13:55;25.70;69.40
46932;DHT22;32670;51.464;11.964;2022-08-19T02:16:21;25.70;69.60
46932;DHT22;32670;51.464;11.964;2022-08-19T02:18:47;25.70;69.50
46932;DHT22;32670;51.464;11.964;2022-08-19T02:21:20;25.70;69.60
46932;DHT22;32670;51.464;11.964;2022-08-19T02:23:47;25.70;69.60
46932;DHT22;32670;51.464;11.964;2022-08-19T02:26:13;25.70;69.80
46932;DHT22;32670;51.464;11.964;2022-08-19T02:28:39;25.70;69.90
46932;DHT22;32670;51.464;11.964;2022-08-19T02:31:14;25.70;70.20
46932;DHT22;32670;51.464;11.964;2022-08-19T02:33:43;25.60;70.10
46932;DHT22;32670;51.464;11.964;2022-08-19T02:36:09;25.60;70.20
46932;DHT22;32670;51.464;11.964;2022-08-19T02:38:35;25.60;70.30
46932;DHT22;32670;51.464;11.964;2022-08-19T02:41:05;25.60;70.50
46932;DHT22;32670;51.464;11.964;2022-08-19T02:43:33;25.50;70.50
46932;DHT22;32670;51.464;11.964;2022-08-19T02:46:16;25.50;70.40
46932;DHT22;32670;51.464;11.964;2022-08-19T02:48:43;25.50;70.60
46932;DHT22;32670;51.464;11.964;2022-08-19T02:51:15;25.60;70.50
46932;DHT22;32670;51.464;11.964;2022-08-19T02:53:41;25.60;70.70
46932;DHT22;32670;51.464;11.964;2022-08-19T02:56:07;25.60;70.50
46932;DHT22;32670;51.464;11.964;2022-08-19T02:58:33;25.60;70.50
46932;DHT22;32670;51.464;11.964;2022-08-19T03:00:58;25.60;70.50
46932;DHT22;32670;51.464;11.964;2022-08-19T03:03:24;25.60;70.60
46932;DHT22;32670;51.464;11.964;2022-08-19T03:05:50;25.60;70.60
46932;DHT22;32670;51.464;11.964;2022-08-19T03:08:15;25.60;70.60
46932;DHT22;32670;51.464;11.964;2022-08-19T03:10:43;25.50;70.70
46932;DHT22;32670;51.464;11.964;2022-08-19T03:13:10;25.50;70.60
46932;DHT22;32670;51.464;11.964;2022-08-19T03:15:40;25.50;71.00
46932;DHT22;32670;51.464;11.964;2022-08-19T03:18:05;25.50;71.00
46932;DHT22;32670;51.464;11.964;2022-08-19T03:20:31;25.50;71.30
46932;DHT22;32670;51.464;11.964;2022-08-19T03:22:56;25.40;71.20
46932;DHT22;32670;51.464;11.964;2022-08-19T03:25:22;25.40;71.50
46932;DHT22;32670;51.464;11.964;2022-08-19T03:27:48;25.40;71.50
46932;DHT22;32670;51.464;11.964;2022-08-19T03:30:14;25.40;71.80
46932;DHT22;32670;51.464;11.964;2022-08-19T03:32:39;25.40;71.70
46932;DHT22;32670;51.464;11.964;2022-08-19T03:35:05;25.40;71.70
46932;DHT22;32670;51.464;11.964;2022-08-19T03:37:31;25.40;71.70
46932;DHT22;32670;51.464;11.964;2022-08-19T03:39:56;25.40;71.90
46932;DHT22;32670;51.464;11.964;2022-08-19T03:42:22;25.40;71.90
46932;DHT22;32670;51.464;11.964;2022-08-19T03:44:47;25.40;71.80
46932;DHT22;32670;51.464;11.964;2022-08-19T03:47:12;25.40;71.60
46932;DHT22;32670;51.464;11.964;2022-08-19T03:49:41;25.40;71.60
46932;DHT22;32670;51.464;11.964;2022-08-19T03:52:07;25.50;71.60
46932;DHT22;32670;51.464;11.964;2022-08-19T03:54:34;25.50;71.70
46932;DHT22;32670;51.464;11.964;2022-08-19T03:56:59;25.50;71.60
46932;DHT22;32670;51.464;11.964;2022-08-19T03:59:28;25.50;71.70
46932;DHT22;32670;51.464;11.964;2022-08-19T04:01:56;25.50;71.60
46932;DHT22;32670;51.464;11.964;2022-08-19T04:04:23;25.50;71.50
46932;DHT22;32670;51.464;11.964;2022-08-19T04:06:49;25.40;71.60
46932;DHT22;32670;51.464;11.964;2022-08-19T04:09:15;25.40;71.70
46932;DHT22;32670;51.464;11.964;2022-08-19T04:11:46;25.40;71.80
46932;DHT22;32670;51.464;11.964;2022-08-19T04:14:15;25.40;71.70
46932;DHT22;32670;51.464;11.964;2022-08-19T04:16:41;25.40;71.70
46932;DHT22;32670;51.464;11.964;2022-08-19T04:19:08;25.40;71.60
46932;DHT22;32670;51.464;11.964;2022-08-19T04:21:34;25.50;71.60
46932;DHT22;32670;51.464;11.964;2022-08-19T04:24:00;25.40;71.50
46932;DHT22;32670;51.464;11.964;2022-08-19T04:26:29;25.40;71.40
46932;DHT22;32670;51.464;11.964;2022-08-19T04:29:03;25.40;71.40
46932;DHT22;32670;51.464;11.964;2022-08-19T04:31:30;25.40;71.30
46932;DHT22;32670;51.464;11.964;2022-08-19T04:33:58;25.40;71.10
46932;DHT22;32670;51.464;11.964;2022-08-19T04:36:27;25.50;71.00
46932;DHT22;32670;51.464;11.964;2022-08-19T04:38:55;25.40;71.00
46932;DHT22;32670;51.464;11.964;2022-08-19T04:41:20;25.40;70.90
46932;DHT22;32670;51.464;11.964;2022-08-19T04:44:04;25.40;71.10
46932;DHT22;32670;51.464;11.964;2022-08-19T04:46:31;25.40;71.30
46932;DHT22;32670;51.464;11.964;2022-08-19T04:48:57;25.30;71.30
46932;DHT22;32670;51.464;11.964;2022-08-19T04:51:23;25.40;71.30
46932;DHT22;32670;51.464;11.964;2022-08-19T04:53:49;25.30;71.20
46932;DHT22;32670;51.464;11.964;2022-08-19T04:56:16;25.30;71.10
46932;DHT22;32670;51.464;11.964;2022-08-19T04:58:43;25.30;71.10
46932;DHT22;32670;51.464;11.964;2022-08-19T05:01:13;25.30;71.20
46932;DHT22;32670;51.464;11.964;2022-08-19T05:03:39;25.30;71.30
46932;DHT22;32670;51.464;11.964;2022-08-19T05:06:11;25.30;71.30
46932;DHT22;32670;51.464;11.964;2022-08-19T05:08:39;25.30;70.80
46932;DHT22;32670;51.464;11.964;2022-08-19T05:11:29;25.30;70.60
46932;DHT22;32670;51.464;11.964;2022-08-19T05:13:56;25.40;70.50
46932;DHT22;32670;51.464;11.964;2022-08-19T05:16:23;25.40;70.30
46932;DHT22;32670;51.464;11.964;2022-08-19T05:18:49;25.40;70.10
46932;DHT22;32670;51.464;11.964;2022-08-19T05:21:35;25.40;70.10
46932;DHT22;32670;51.464;11.964;2022-08-19T05:24:21;25.40;70.10
46932;DHT22;32670;51.464;11.964;2022-08-19T05:26:49;25.40;70.30
46932;DHT22;32670;51.464;11.964;2022-08-19T05:29:18;25.40;70.00
46932;DHT22;32670;51.464;11.964;2022-08-19T05:31:45;25.40;69.60
46932;DHT22;32670;51.464;11.964;2022-08-19T05:34:12;25.50;69.50
46932;DHT22;32670;51.464;11.964;2022-08-19T05:36:41;25.50;69.40
46932;DHT22;32670;51.464;11.964;2022-08-19T05:39:12;25.50;69.20
46932;DHT22;32670;51.464;11.964;2022-08-19T05:41:42;25.50;69.20
46932;DHT22;32670;51.464;11.964;2022-08-19T05:44:08;25.50;69.30
46932;DHT22;32670;51.464;11.964;2022-08-19T05:46:36;25.50;69.30
46932;DHT22;32670;51.464;11.964;2022-08-19T05:49:03;25.50;69.10
46932;DHT22;32670;51.464;11.964;2022-08-19T05:51:31;25.50;69.00
46932;DHT22;32670;51.464;11.964;2022-08-19T05:53:57;25.50;69.00
46932;DHT22;32670;51.464;11.964;2022-08-19T05:56:23;25.50;68.80
46932;DHT22;32670;51.464;11.964;2022-08-19T05:58:49;25.50;68.90
46932;DHT22;32670;51.464;11.964;2022-08-19T06:01:17;25.50;69.10
46932;DHT22;32670;51.464;11.964;2022-08-19T06:03:43;25.50;69.00
46932;DHT22;32670;51.464;11.964;2022-08-19T06:06:09;25.50;68.90
46932;DHT22;32670;51.464;11.964;2022-08-19T06:08:36;25.50;68.60
46932;DHT22;32670;51.464;11.964;2022-08-19T06:11:15;25.50;68.70
46932;DHT22;32670;51.464;11.964;2022-08-19T06:13:42;25.50;68.90
46932;DHT22;32670;51.464;11.964;2022-08-19T06:16:07;25.40;68.60
46932;DHT22;32670;51.464;11.964;2022-08-19T06:18:33;25.40;68.40
46932;DHT22;32670;51.464;11.964;2022-08-19T06:20:58;25.40;68.30
46932;DHT22;32670;51.464;11.964;2022-08-19T06:23:24;25.50;68.40
46932;DHT22;32670;51.464;11.964;2022-08-19T06:25:50;25.40;68.00
46932;DHT22;32670;51.464;11.964;2022-08-19T06:28:16;25.40;67.80
46932;DHT22;32670;51.464;11.964;2022-08-19T06:30:41;25.40;67.80
46932;DHT22;32670;51.464;11.964;2022-08-19T06:33:07;25.40;67.70
46932;DHT22;32670;51.464;11.964;2022-08-19T06:35:32;25.40;67.50
46932;DHT22;32670;51.464;11.964;2022-08-19T06:37:58;25.40;67.40
46932;DHT22;32670;51.464;11.964;2022-08-19T06:40:24;25.40;68.00
46932;DHT22;32670;51.464;11.964;2022-08-19T06:42:49;25.40;67.10
46932;DHT22;32670;51.464;11.964;2022-08-19T06:45:15;25.40;67.00
46932;DHT22;32670;51.464;11.964;2022-08-19T06:47:40;25.40;66.90
46932;DHT22;32670;51.464;11.964;2022-08-19T06:50:13;25.40;67.00
46932;DHT22;32670;51.464;11.964;2022-08-19T06:52:39;25.40;67.20
46932;DHT22;32670;51.464;11.964;2022-08-19T06:55:05;25.40;67.20
46932;DHT22;32670;51.464;11.964;2022-08-19T06:57:31;25.50;67.00
46932;DHT22;32670;51.464;11.964;2022-08-19T06:59:58;25.60;66.90
46932;DHT22;32670;51.464;11.964;2022-08-19T07:02:25;25.60;66.90
46932;DHT22;32670;51.464;11.964;2022-08-19T07:04:52;25.70;66.80
46932;DHT22;32670;51.464;11.964;2022-08-19T07:07:17;25.80;66.90
46932;DHT22;32670;51.464;11.964;2022-08-19T07:09:44;25.80;66.80
46932;DHT22;32670;51.464;11.964;2022-08-19T07:12:12;25.90;67.00
46932;DHT22;32670;51.464;11.964;2022-08-19T07:14:39;25.90;67.00
46932;DHT22;32670;51.464;11.964;2022-08-19T07:17:07;25.90;66.80
46932;DHT22;32670;51.464;11.964;2022-08-19T07:19:34;26.00;66.90
46932;DHT22;32670;51.464;11.964;2022-08-19T07:22:01;26.00;66.80
46932;DHT22;32670;51.464;11.964;2022-08-19T07:24:28;26.00;66.70
46932;DHT22;32670;51.464;11.964;2022-08-19T07:26:56;26.10;66.70
46932;DHT22;32670;51.464;11.964;2022-08-19T07:29:27;26.10;66.70
46932;DHT22;32670;51.464;11.964;2022-08-19T07:31:55;26.10;66.90
46932;DHT22;32670;51.464;11.964;2022-08-19T07:34:25;26.10;66.60
46932;DHT22;32670;51.464;11.964;2022-08-19T07:36:51;26.10;66.60
46932;DHT22;32670;51.464;11.964;2022-08-19T07:39:24;26.10;66.60
46932;DHT22;32670;51.464;11.964;2022-08-19T07:41:51;26.10;66.40
46932;DHT22;32670;51.464;11.964;2022-08-19T07:44:18;26.20;66.50
46932;DHT22;32670;51.464;11.964;2022-08-19T07:46:48;26.10;66.30
46932;DHT22;32670;51.464;11.964;2022-08-19T07:49:14;26.10;66.30
46932;DHT22;32670;51.464;11.964;2022-08-19T07:54:17;26.20;66.30
46932;DHT22;32670;51.464;11.964;2022-08-19T07:56:43;26.20;66.20
46932;DHT22;32670;51.464;11.964;2022-08-19T07:59:09;26.20;66.30
46932;DHT22;32670;51.464;11.964;2022-08-19T08:01:36;26.20;66.20
46932;DHT22;32670;51.464;11.964;2022-08-19T08:04:01;26.20;66.20
46932;DHT22;32670;51.464;11.964;2022-08-19T08:06:45;26.20;66.30
46932;DHT22;32670;51.464;11.964;2022-08-19T08:09:41;26.20;66.20
46932;DHT22;32670;51.464;11.964;2022-08-19T08:12:10;26.20;66.40
46932;DHT22;32670;51.464;11.964;2022-08-19T08:14:40;26.20;66.10
46932;DHT22;32670;51.464;11.964;2022-08-19T08:17:07;26.20;66.30
46932;DHT22;32670;51.464;11.964;2022-08-19T08:19:34;26.20;66.10
46932;DHT22;32670;51.464;11.964;2022-08-19T08:22:00;26.20;64.90
46932;DHT22;32670;51.464;11.964;2022-08-19T08:24:28;26.10;64.40
46932;DHT22;32670;51.464;11.964;2022-08-19T08:26:54;26.10;64.80
46932;DHT22;32670;51.464;11.964;2022-08-19T08:29:20;26.10;65.20
46932;DHT22;32670;51.464;11.964;2022-08-19T08:31:46;26.10;65.20
46932;DHT22;32670;51.464;11.964;2022-08-19T08:34:13;26.10;65.40
46932;DHT22;32670;51.464;11.964;2022-08-19T08:36:41;26.20;65.60
46932;DHT22;32670;51.464;11.964;2022-08-19T08:39:09;26.20;65.50
46932;DHT22;32670;51.464;11.964;2022-08-19T08:41:51;26.20;65.60
46932;DHT22;32670;51.464;11.964;2022-08-19T08:44:40;26.30;65.50
46932;DHT22;32670;51.464;11.964;2022-08-19T08:47:13;26.30;65.60
46932;DHT22;32670;51.464;11.964;2022-08-19T08:49:53;26.20;65.70
46932;DHT22;32670;51.464;11.964;2022-08-19T08:52:24;26.30;65.80
46932;DHT22;32670;51.464;11.964;2022-08-19T08:54:53;26.30;65.80
46932;DHT22;32670;51.464;11.964;2022-08-19T08:57:27;26.30;65.60
46932;DHT22;32670;51.464;11.964;2022-08-19T08:59:54;26.30;65.70
46932;DHT22;32670;51.464;11.964;2022-08-19T09:02:22;26.40;66.00
46932;DHT22;32670;51.464;11.964;2022-08-19T09:04:47;26.30;66.00
46932;DHT22;32670;51.464;11.964;2022-08-19T09:10:40;26.30;64.40
46932;DHT22;32670;51.464;11.964;2022-08-19T09:13:23;26.20;63.90
46932;DHT22;32670;51.464;11.964;2022-08-19T09:16:03;26.20;63.90
46932;DHT22;32670;51.464;11.964;2022-08-19T09:18:40;26.20;64.10
46932;DHT22;32670;51.464;11.964;2022-08-19T09:21:06;26.10;64.00
46932;DHT22;32670;51.464;11.964;2022-08-19T09:23:34;26.10;64.00
46932;DHT22;32670;51.464;11.964;2022-08-19T09:26:00;26.10;64.00
46932;DHT22;32670;51.464;11.964;2022-08-19T09:28:25;26.10;63.80
46932;DHT22;32670;51.464;11.964;2022-08-19T09:30:51;26.10;63.90
46932;DHT22;32670;51.464;11.964;2022-08-19T09:33:16;26.00;63.70
46932;DHT22;32670;51.464;11.964;2022-08-19T09:35:42;26.10;63.70
46932;DHT22;32670;51.464;11.964;2022-08-19T09:38:08;26.10;63.50
46932;DHT22;32670;51.464;11.964;2022-08-19T09:40:33;26.00;63.10
46932;DHT22;32670;51.464;11.964;2022-08-19T09:42:59;25.90;62.80
46932;DHT22;32670;51.464;11.964;2022-08-19T09:45:28;25.80;63.20
46932;DHT22;32670;51.464;11.964;2022-08-19T09:47:53;25.80;63.80
46932;DHT22;32670;51.464;11.964;2022-08-19T09:50:19;25.80;63.60
46932;DHT22;32670;51.464;11.964;2022-08-19T09:52:45;25.80;63.50
46932;DHT22;32670;51.464;11.964;2022-08-19T09:55:12;25.90;63.40
46932;DHT22;32670;51.464;11.964;2022-08-19T09:57:38;26.00;63.60
46932;DHT22;32670;51.464;11.964;2022-08-19T10:00:06;26.00;63.50
46932;DHT22;32670;51.464;11.964;2022-08-19T10:02:33;26.10;64.10
46932;DHT22;32670;51.464;11.964;2022-08-19T10:04:58;26.10;63.40
46932;DHT22;32670;51.464;11.964;2022-08-19T10:07:42;26.10;63.40
46932;DHT22;32670;51.464;11.964;2022-08-19T10:10:08;26.20;63.40
46932;DHT22;32670;51.464;11.964;2022-08-19T10:12:35;26.20;63.40
46932;DHT22;32670;51.464;11.964;2022-08-19T10:15:00;26.20;63.40
46932;DHT22;32670;51.464;11.964;2022-08-19T10:17:26;26.30;63.30
46932;DHT22;32670;51.464;11.964;2022-08-19T10:19:52;26.30;63.30
46932;DHT22;32670;51.464;11.964;2022-08-19T10:22:18;26.30;63.20
46932;DHT22;32670;51.464;11.964;2022-08-19T10:24:45;26.30;63.10
46932;DHT22;32670;51.464;11.964;2022-08-19T10:27:11;26.40;63.20
46932;DHT22;32670;51.464;11.964;2022-08-19T10:29:38;26.40;63.40
46932;DHT22;32670;51.464;11.964;2022-08-19T10:32:06;26.40;63.30
46932;DHT22;32670;51.464;11.964;2022-08-19T10:34:33;26.40;63.40
46932;DHT22;32670;51.464;11.964;2022-08-19T10:36:59;26.40;63.20
46932;DHT22;32670;51.464;11.964;2022-08-19T10:39:25;26.50;63.40
46932;DHT22;32670;51.464;11.964;2022-08-19T10:41:53;26.40;63.00
46932;DHT22;32670;51.464;11.964;2022-08-19T10:44:19;26.40;63.00
46932;DHT22;32670;51.464;11.964;2022-08-19T10:46:44;26.50;63.30
46932;DHT22;32670;51.464;11.964;2022-08-19T10:49:12;26.40;63.10
46932;DHT22;32670;51.464;11.964;2022-08-19T10:51:39;26.40;63.30
46932;DHT22;32670;51.464;11.964;2022-08-19T10:54:23;26.50;63.10
46932;DHT22;32670;51.464;11.964;2022-08-19T10:57:09;26.50;62.60
46932;DHT22;32670;51.464;11.964;2022-08-19T10:59:35;26.50;61.50
46932;DHT22;32670;51.464;11.964;2022-08-19T11:02:03;26.40;61.30
46932;DHT22;32670;51.464;11.964;2022-08-19T11:04:29;26.40;61.10
46932;DHT22;32670;51.464;11.964;2022-08-19T11:06:55;26.50;60.90
46932;DHT22;32670;51.464;11.964;2022-08-19T11:09:23;26.40;60.60
46932;DHT22;32670;51.464;11.964;2022-08-19T11:11:50;26.40;60.70
46932;DHT22;32670;51.464;11.964;2022-08-19T11:14:17;26.50;60.70
46932;DHT22;32670;51.464;11.964;2022-08-19T11:16:44;26.50;60.50
46932;DHT22;32670;51.464;11.964;2022-08-19T11:19:11;26.50;60.10
46932;DHT22;32670;51.464;11.964;2022-08-19T11:21:39;26.50;60.00
46932;DHT22;32670;51.464;11.964;2022-08-19T11:24:11;26.50;59.90
46932;DHT22;32670;51.464;11.964;2022-08-19T11:26:39;26.50;60.00
46932;DHT22;32670;51.464;11.964;2022-08-19T11:29:07;26.50;60.00
46932;DHT22;32670;51.464;11.964;2022-08-19T11:31:37;26.50;59.90
46932;DHT22;32670;51.464;11.964;2022-08-19T11:34:05;26.60;59.70
46932;DHT22;32670;51.464;11.964;2022-08-19T11:36:32;26.60;59.50
46932;DHT22;32670;51.464;11.964;2022-08-19T11:38:58;26.50;59.20
46932;DHT22;32670;51.464;11.964;2022-08-19T11:41:24;26.60;59.20
46932;DHT22;32670;51.464;11.964;2022-08-19T11:43:51;26.60;59.30
46932;DHT22;32670;51.464;11.964;2022-08-19T11:46:22;26.60;59.40
46932;DHT22;32670;51.464;11.964;2022-08-19T11:48:48;26.60;59.70
46932;DHT22;32670;51.464;11.964;2022-08-19T11:51:20;26.60;59.70
46932;DHT22;32670;51.464;11.964;2022-08-19T11:53:47;26.60;59.50
46932;DHT22;32670;51.464;11.964;2022-08-19T11:56:12;26.60;59.60
46932;DHT22;32670;51.464;11.964;2022-08-19T11:58:39;26.60;59.60
46932;DHT22;32670;51.464;11.964;2022-08-19T12:01:12;26.60;59.40
46932;DHT22;32670;51.464;11.964;2022-08-19T12:03:38;26.60;59.50
46932;DHT22;32670;51.464;11.964;2022-08-19T12:06:05;26.50;59.20
46932;DHT22;32670;51.464;11.964;2022-08-19T12:08:31;26.50;59.30
46932;DHT22;32670;51.464;11.964;2022-08-19T12:10:56;26.50;58.80
46932;DHT22;32670;51.464;11.964;2022-08-19T12:13:22;26.50;59.40
46932;DHT22;32670;51.464;11.964;2022-08-19T12:15:48;26.50;59.40
46932;DHT22;32670;51.464;11.964;2022-08-19T12:18:13;26.50;59.20
46932;DHT22;32670;51.464;11.964;2022-08-19T12:20:40;26.50;59.50
46932;DHT22;32670;51.464;11.964;2022-08-19T12:23:07;26.50;59.50
46932;DHT22;32670;51.464;11.964;2022-08-19T12:25:33;26.50;59.60
46932;DHT22;32670;51.464;11.964;2022-08-19T12:27:59;26.50;59.50
46932;DHT22;32670;51.464;11.964;2022-08-19T12:30:25;26.50;59.70
46932;DHT22;32670;51.464;11.964;2022-08-19T12:32:51;26.50;59.60
46932;DHT22;32670;51.464;11.964;2022-08-19T12:35:17;26.50;59.70
46932;DHT22;32670;51.464;11.964;2022-08-19T12:37:46;26.50;59.70
46932;DHT22;32670;51.464;11.964;2022-08-19T12:40:13;26.50;59.70
46932;DHT22;32670;51.464;11.964;2022-08-19T12:42:40;26.50;59.70
46932;DHT22;32670;51.464;11.964;2022-08-19T12:45:11;26.50;59.70
46932;DHT22;32670;51.464;11.964;2022-08-19T12:47:38;26.50;59.70
46932;DHT22;32670;51.464;11.964;2022-08-19T12:50:04;26.50;59.70
46932;DHT22;32670;51.464;11.964;2022-08-19T12:52:31;26.50;59.80
46932;DHT22;32670;51.464;11.964;2022-08-19T12:54:57;26.50;59.70
46932;DHT22;32670;51.464;11.964;2022-08-19T12:57:24;26.50;59.80
46932;DHT22;32670;51.464;11.964;2022-08-19T12:59:53;26.50;59.90
46932;DHT22;32670;51.464;11.964;2022-08-19T13:02:19;26.50;59.90
46932;DHT22;32670;51.464;11.964;2022-08-19T13:04:45;26.50;59.90
46932;DHT22;32670;51.464;11.964;2022-08-19T13:07:10;26.50;60.00
46932;DHT22;32670;51.464;11.964;2022-08-19T13:09:36;26.50;60.00
46932;DHT22;32670;51.464;11.964;2022-08-19T13:12:03;26.50;60.10
46932;DHT22;32670;51.464;11.964;2022-08-19T13:14:34;26.50;60.10
46932;DHT22;32670;51.464;11.964;2022-08-19T13:16:59;26.50;59.90
46932;DHT22;32670;51.464;11.964;2022-08-19T13:19:25;26.60;60.30
46932;DHT22;32670;51.464;11.964;2022-08-19T13:21:51;26.50;60.00
46932;DHT22;32670;51.464;11.964;2022-08-19T13:24:17;26.50;59.90
46932;DHT22;32670;51.464;11.964;2022-08-19T13:26:43;26.60;59.90
46932;DHT22;32670;51.464;11.964;2022-08-19T13:29:09;26.50;59.80
46932;DHT22;32670;51.464;11.964;2022-08-19T13:31:53;26.60;60.00
46932;DHT22;32670;51.464;11.964;2022-08-19T13:34:37;26.60;60.00
46932;DHT22;32670;51.464;11.964;2022-08-19T13:37:03;26.60;59.80
46932;DHT22;32670;51.464;11.964;2022-08-19T13:39:30;26.60;59.80
46932;DHT22;32670;51.464;11.964;2022-08-19T13:41:57;26.60;60.10
46932;DHT22;32670;51.464;11.964;2022-08-19T13:44:24;26.60;60.20
46932;DHT22;32670;51.464;11.964;2022-08-19T13:46:49;26.60;60.10
46932;DHT22;32670;51.464;11.964;2022-08-19T13:49:18;26.70;60.00
46932;DHT22;32670;51.464;11.964;2022-08-19T13:51:44;26.60;60.10
46932;DHT22;32670;51.464;11.964;2022-08-19T13:54:11;26.70;60.10
46932;DHT22;32670;51.464;11.964;2022-08-19T13:56:41;26.70;59.90
46932;DHT22;32670;51.464;11.964;2022-08-19T13:59:08;26.60;60.10
46932;DHT22;32670;51.464;11.964;2022-08-19T14:01:33;26.60;59.60
46932;DHT22;32670;51.464;11.964;2022-08-19T14:04:00;26.60;59.40
46932;DHT22;32670;51.464;11.964;2022-08-19T14:06:25;26.60;59.60
46932;DHT22;32670;51.464;11.964;2022-08-19T14:08:51;26.60;59.50
46932;DHT22;32670;51.464;11.964;2022-08-19T14:11:17;26.50;59.40
46932;DHT22;32670;51.464;11.964;2022-08-19T14:13:43;26.60;59.30
46932;DHT22;32670;51.464;11.964;2022-08-19T14:16:10;26.50;59.10
46932;DHT22;32670;51.464;11.964;2022-08-19T14:18:35;26.60;59.30
46932;DHT22;32670;51.464;11.964;2022-08-19T14:21:01;26.60;59.20
46932;DHT22;32670;51.464;11.964;2022-08-19T14:23:28;26.60;59.10
46932;DHT22;32670;51.464;11.964;2022-08-19T14:26:03;26.60;59.30
46932;DHT22;32670;51.464;11.964;2022-08-19T14:28:29;26.60;59.10
46932;DHT22;32670;51.464;11.964;2022-08-19T14:30:55;26.60;58.80
46932;DHT22;32670;51.464;11.964;2022-08-19T14:33:20;26.60;58.70
46932;DHT22;32670;51.464;11.964;2022-08-19T14:35:46;26.60;58.80
46932;DHT22;32670;51.464;11.964;2022-08-19T14:38:16;26.60;59.00
46932;DHT22;32670;51.464;11.964;2022-08-19T14:40:41;26.60;58.70
46932;DHT22;32670;51.464;11.964;2022-08-19T14:43:07;26.60;58.70
46932;DHT22;32670;51.464;11.964;2022-08-19T14:45:36;26.60;58.70
46932;DHT22;32670;51.464;11.964;2022-08-19T14:48:02;26.60;58.90
46932;DHT22;32670;51.464;11.964;2022-08-19T14:50:28;26.50;58.60
46932;DHT22;32670;51.464;11.964;2022-08-19T14:52:59;26.60;58.60
46932;DHT22;32670;51.464;11.964;2022-08-19T14:55:25;26.60;58.70
46932;DHT22;32670;51.464;11.964;2022-08-19T14:57:50;26.50;58.70
46932;DHT22;32670;51.464;11.964;2022-08-19T15:00:16;26.60;58.40
46932;DHT22;32670;51.464;11.964;2022-08-19T15:02:42;26.50;58.20
46932;DHT22;32670;51.464;11.964;2022-08-19T15:05:09;26.60;58.30
46932;DHT22;32670;51.464;11.964;2022-08-19T15:07:36;26.60;58.50
46932;DHT22;32670;51.464;11.964;2022-08-19T15:10:02;26.60;58.50
46932;DHT22;32670;51.464;11.964;2022-08-19T15:12:28;26.60;58.30
46932;DHT22;32670;51.464;11.964;2022-08-19T15:14:53;26.60;58.30
46932;DHT22;32670;51.464;11.964;2022-08-19T15:17:20;26.60;58.10
46932;DHT22;32670;51.464;11.964;2022-08-19T15:19:46;26.60;58.30
46932;DHT22;32670;51.464;11.964;2022-08-19T15:22:11;26.60;58.20
46932;DHT22;32670;51.464;11.964;2022-08-19T15:24:36;26.60;58.40